sensor_id;sensor_type;location;lat;lon;timestamp;temperature;humidity
31639;DHT22;18248;51.522;7.020;2022-10-31T00:50:49;14.30;99.90
31639;DHT22;18248;51.522;7.020;2022-10-31T00:53:48;15.20;99.90
31639;DHT22;18248;51.522;7.020;2022-10-31T00:56:46;15.10;99.90
31639;DHT22;18248;51.522;7.020;2022-10-31T00:59:45;15.10;99.90
31639;DHT22;18248;51.522;7.020;2022-10-31T01:02:44;15.10;99.90
31639;DHT22;18248;51.522;7.020;2022-10-31T01:05:42;15.10;99.90
31639;DHT22;18248;51.522;7.020;2022-10-31T01:08:42;15.10;99.90
31639;DHT22;18248;51.522;7.020;2022-10-31T01:11:42;15.10;99.90
31639;DHT22;18248;51.522;7.020;2022-10-31T01:14:44;15.10;99.90
31639;DHT22;18248;51.522;7.020;2022-10-31T01:17:43;15.00;99.90
31639;DHT22;18248;51.522;7.020;2022-10-31T01:20:42;15.10;99.90
31639;DHT22;18248;51.522;7.020;2022-10-31T01:23:40;15.10;99.90
31639;DHT22;18248;51.522;7.020;2022-10-31T01:26:39;15.10;99.90
31639;DHT22;18248;51.522;7.020;2022-10-31T01:29:38;15.20;99.90
31639;DHT22;18248;51.522;7.020;2022-10-31T01:32:37;15.20;99.90
31639;DHT22;18248;51.522;7.020;2022-10-31T01:35:36;15.10;99.90
31639;DHT22;18248;51.522;7.020;2022-10-31T01:38:34;15.10;99.90
31639;DHT22;18248;51.522;7.020;2022-10-31T01:41:37;15.10;99.90
31639;DHT22;18248;51.522;7.020;2022-10-31T01:47:42;15.10;99.90
31639;DHT22;18248;51.522;7.020;2022-10-31T01:50:44;15.10;99.90
31639;DHT22;18248;51.522;7.020;2022-10-31T01:53:45;15.10;99.90
31639;DHT22;18248;51.522;7.020;2022-10-31T01:56:48;15.10;99.90
31639;DHT22;18248;51.522;7.020;2022-10-31T01:59:52;15.00;99.90
31639;DHT22;18248;51.522;7.020;2022-10-31T02:02:52;15.00;99.90
31639;DHT22;18248;51.522;7.020;2022-10-31T02:05:55;15.00;99.90
31639;DHT22;18248;51.522;7.020;2022-10-31T02:08:57;14.90;99.90
31639;DHT22;18248;51.522;7.020;2022-10-31T02:11:58;14.90;99.90
31639;DHT22;18248;51.522;7.020;2022-10-31T02:14:58;14.90;99.90
31639;DHT22;18248;51.522;7.020;2022-10-31T02:17:59;14.80;99.90
31639;DHT22;18248;51.522;7.020;2022-10-31T02:27:58;14.70;99.90
31639;DHT22;18248;51.522;7.020;2022-10-31T02:31:40;14.70;99.90
31639;DHT22;18248;51.522;7.020;2022-10-31T02:35:07;14.60;99.90
31639;DHT22;18248;51.522;7.020;2022-10-31T02:38:29;14.60;99.90
31639;DHT22;18248;51.522;7.020;2022-10-31T02:42:00;14.50;99.90
31639;DHT22;18248;51.522;7.020;2022-10-31T02:45:31;14.50;99.90
31639;DHT22;18248;51.522;7.020;2022-10-31T02:48:33;14.40;99.90
31639;DHT22;18248;51.522;7.020;2022-10-31T02:51:35;14.30;99.90
31639;DHT22;18248;51.522;7.020;2022-10-31T02:54:34;14.40;99.90
31639;DHT22;18248;51.522;7.020;2022-10-31T02:57:34;14.40;99.90
31639;DHT22;18248;51.522;7.020;2022-10-31T03:00:43;14.40;99.90
31639;DHT22;18248;51.522;7.020;2022-10-31T03:10:42;14.20;99.90
31639;DHT22;18248;51.522;7.020;2022-10-31T03:13:58;14.20;99.90
31639;DHT22;18248;51.522;7.020;2022-10-31T03:17:03;14.10;99.90
31639;DHT22;18248;51.522;7.020;2022-10-31T03:20:06;14.10;99.90
31639;DHT22;18248;51.522;7.020;2022-10-31T03:23:12;14.00;99.90
31639;DHT22;18248;51.522;7.020;2022-10-31T03:26:13;14.00;99.90
31639;DHT22;18248;51.522;7.020;2022-10-31T03:29:16;13.80;99.90
31639;DHT22;18248;51.522;7.020;2022-10-31T03:32:21;13.70;99.90
31639;DHT22;18248;51.522;7.020;2022-10-31T03:35:23;13.70;99.90
31639;DHT22;18248;51.522;7.020;2022-10-31T03:38:22;13.80;99.90
31639;DHT22;18248;51.522;7.020;2022-10-31T03:41:24;13.80;99.90
31639;DHT22;18248;51.522;7.020;2022-10-31T03:44:27;13.70;99.90
31639;DHT22;18248;51.522;7.020;2022-10-31T03:47:27;13.70;99.90
31639;DHT22;18248;51.522;7.020;2022-10-31T03:50:31;13.60;99.90
31639;DHT22;18248;51.522;7.020;2022-10-31T03:53:52;13.60;99.90
31639;DHT22;18248;51.522;7.020;2022-10-31T03:56:57;13.50;99.90
31639;DHT22;18248;51.522;7.020;2022-10-31T04:00:18;13.60;99.90
31639;DHT22;18248;51.522;7.020;2022-10-31T04:03:25;13.50;99.90
31639;DHT22;18248;51.522;7.020;2022-10-31T04:06:24;13.40;99.90
31639;DHT22;18248;51.522;7.020;2022-10-31T04:09:26;13.40;99.90
31639;DHT22;18248;51.522;7.020;2022-10-31T04:12:26;13.40;99.90
31639;DHT22;18248;51.522;7.020;2022-10-31T04:15:26;13.30;99.90
31639;DHT22;18248;51.522;7.020;2022-10-31T04:18:26;13.30;99.90
31639;DHT22;18248;51.522;7.020;2022-10-31T04:21:28;13.30;99.90
31639;DHT22;18248;51.522;7.020;2022-10-31T04:24:27;13.40;99.90
31639;DHT22;18248;51.522;7.020;2022-10-31T04:27:26;13.30;99.90
31639;DHT22;18248;51.522;7.020;2022-10-31T04:30:24;13.30;99.90
31639;DHT22;18248;51.522;7.020;2022-10-31T04:33:23;13.30;99.90
31639;DHT22;18248;51.522;7.020;2022-10-31T04:36:23;13.30;99.90
31639;DHT22;18248;51.522;7.020;2022-10-31T04:39:21;13.30;99.90
31639;DHT22;18248;51.522;7.020;2022-10-31T04:42:20;13.30;99.90
31639;DHT22;18248;51.522;7.020;2022-10-31T04:45:19;13.30;99.90
31639;DHT22;18248;51.522;7.020;2022-10-31T04:48:17;13.30;99.90
31639;DHT22;18248;51.522;7.020;2022-10-31T04:51:16;13.30;99.90
31639;DHT22;18248;51.522;7.020;2022-10-31T04:54:14;13.30;99.90
31639;DHT22;18248;51.522;7.020;2022-10-31T04:57:13;13.30;99.90
31639;DHT22;18248;51.522;7.020;2022-10-31T05:00:14;13.40;99.90
31639;DHT22;18248;51.522;7.020;2022-10-31T05:03:12;13.30;99.90
31639;DHT22;18248;51.522;7.020;2022-10-31T05:06:11;13.30;99.90
31639;DHT22;18248;51.522;7.020;2022-10-31T05:09:12;13.30;99.90
31639;DHT22;18248;51.522;7.020;2022-10-31T05:12:10;13.40;99.90
31639;DHT22;18248;51.522;7.020;2022-10-31T05:15:09;13.30;99.90
31639;DHT22;18248;51.522;7.020;2022-10-31T05:18:08;13.30;99.90
31639;DHT22;18248;51.522;7.020;2022-10-31T05:21:06;13.30;99.90
31639;DHT22;18248;51.522;7.020;2022-10-31T05:24:05;13.30;99.90
31639;DHT22;18248;51.522;7.020;2022-10-31T05:27:04;13.30;99.90
31639;DHT22;18248;51.522;7.020;2022-10-31T05:30:04;13.20;99.90
31639;DHT22;18248;51.522;7.020;2022-10-31T05:33:03;13.20;99.90
31639;DHT22;18248;51.522;7.020;2022-10-31T05:36:01;13.20;99.90
31639;DHT22;18248;51.522;7.020;2022-10-31T05:39:00;13.20;99.90
31639;DHT22;18248;51.522;7.020;2022-10-31T05:42:00;13.10;99.90
31639;DHT22;18248;51.522;7.020;2022-10-31T05:44:58;13.10;99.90
31639;DHT22;18248;51.522;7.020;2022-10-31T05:47:58;13.00;99.90
31639;DHT22;18248;51.522;7.020;2022-10-31T05:50:57;13.00;99.90
31639;DHT22;18248;51.522;7.020;2022-10-31T05:53:56;13.00;99.90
31639;DHT22;18248;51.522;7.020;2022-10-31T05:56:54;13.00;99.90
31639;DHT22;18248;51.522;7.020;2022-10-31T05:59:53;13.00;99.90
31639;DHT22;18248;51.522;7.020;2022-10-31T06:03:04;13.00;99.90
31639;DHT22;18248;51.522;7.020;2022-10-31T06:06:03;12.90;99.90
31639;DHT22;18248;51.522;7.020;2022-10-31T06:09:02;13.00;99.90
31639;DHT22;18248;51.522;7.020;2022-10-31T06:12:00;13.00;99.90
31639;DHT22;18248;51.522;7.020;2022-10-31T06:14:59;13.00;99.90
31639;DHT22;18248;51.522;7.020;2022-10-31T06:18:06;13.10;99.90
31639;DHT22;18248;51.522;7.020;2022-10-31T06:21:05;13.10;99.90
31639;DHT22;18248;51.522;7.020;2022-10-31T06:24:04;13.10;99.90
31639;DHT22;18248;51.522;7.020;2022-10-31T06:27:04;13.10;99.90
31639;DHT22;18248;51.522;7.020;2022-10-31T06:30:02;13.00;99.90
31639;DHT22;18248;51.522;7.020;2022-10-31T06:33:02;13.00;99.90
31639;DHT22;18248;51.522;7.020;2022-10-31T06:36:03;13.00;99.90
31639;DHT22;18248;51.522;7.020;2022-10-31T06:39:01;13.00;99.90
31639;DHT22;18248;51.522;7.020;2022-10-31T06:42:00;13.00;99.90
31639;DHT22;18248;51.522;7.020;2022-10-31T06:44:58;13.00;99.90
31639;DHT22;18248;51.522;7.020;2022-10-31T06:47:57;13.00;99.90
31639;DHT22;18248;51.522;7.020;2022-10-31T06:50:59;12.90;99.90
31639;DHT22;18248;51.522;7.020;2022-10-31T06:53:58;12.90;99.90
31639;DHT22;18248;51.522;7.020;2022-10-31T06:56:57;13.00;99.90
31639;DHT22;18248;51.522;7.020;2022-10-31T06:59:56;13.00;99.90
31639;DHT22;18248;51.522;7.020;2022-10-31T07:03:06;13.00;99.90
31639;DHT22;18248;51.522;7.020;2022-10-31T07:06:04;13.00;99.90
31639;DHT22;18248;51.522;7.020;2022-10-31T07:09:03;13.00;99.90
31639;DHT22;18248;51.522;7.020;2022-10-31T07:12:03;13.00;99.90
31639;DHT22;18248;51.522;7.020;2022-10-31T07:15:02;13.10;99.90
31639;DHT22;18248;51.522;7.020;2022-10-31T07:18:06;13.10;99.90
31639;DHT22;18248;51.522;7.020;2022-10-31T07:21:04;13.10;99.90
31639;DHT22;18248;51.522;7.020;2022-10-31T07:24:03;13.20;99.90
31639;DHT22;18248;51.522;7.020;2022-10-31T07:27:03;13.20;99.90
31639;DHT22;18248;51.522;7.020;2022-10-31T07:30:03;13.20;99.90
31639;DHT22;18248;51.522;7.020;2022-10-31T07:33:02;13.20;99.90
31639;DHT22;18248;51.522;7.020;2022-10-31T07:36:01;13.30;99.90
31639;DHT22;18248;51.522;7.020;2022-10-31T07:39:00;13.30;99.90
31639;DHT22;18248;51.522;7.020;2022-10-31T07:42:00;13.40;99.90
31639;DHT22;18248;51.522;7.020;2022-10-31T07:44:59;13.30;99.90
31639;DHT22;18248;51.522;7.020;2022-10-31T07:47:57;13.40;99.90
31639;DHT22;18248;51.522;7.020;2022-10-31T07:50:56;13.40;99.90
31639;DHT22;18248;51.522;7.020;2022-10-31T07:53:54;13.50;99.90
31639;DHT22;18248;51.522;7.020;2022-10-31T07:56:53;13.50;99.90
31639;DHT22;18248;51.522;7.020;2022-10-31T07:59:51;13.50;99.90
31639;DHT22;18248;51.522;7.020;2022-10-31T08:02:57;13.60;99.90
31639;DHT22;18248;51.522;7.020;2022-10-31T08:05:57;13.70;99.90
31639;DHT22;18248;51.522;7.020;2022-10-31T08:08:56;13.70;99.90
31639;DHT22;18248;51.522;7.020;2022-10-31T08:11:54;13.80;99.90
31639;DHT22;18248;51.522;7.020;2022-10-31T08:14:53;13.90;99.90
31639;DHT22;18248;51.522;7.020;2022-10-31T08:17:51;14.00;99.90
31639;DHT22;18248;51.522;7.020;2022-10-31T08:20:50;14.00;99.90
31639;DHT22;18248;51.522;7.020;2022-10-31T08:23:48;14.10;99.90
31639;DHT22;18248;51.522;7.020;2022-10-31T08:26:47;14.20;99.90
31639;DHT22;18248;51.522;7.020;2022-10-31T08:29:46;14.30;99.90
31639;DHT22;18248;51.522;7.020;2022-10-31T08:32:44;14.30;99.90
31639;DHT22;18248;51.522;7.020;2022-10-31T08:35:43;14.50;99.90
31639;DHT22;18248;51.522;7.020;2022-10-31T08:38:42;14.50;99.90
31639;DHT22;18248;51.522;7.020;2022-10-31T08:41:40;14.60;99.90
31639;DHT22;18248;51.522;7.020;2022-10-31T08:44:39;14.70;99.90
31639;DHT22;18248;51.522;7.020;2022-10-31T08:47:38;14.80;99.90
31639;DHT22;18248;51.522;7.020;2022-10-31T08:50:37;14.90;99.90
31639;DHT22;18248;51.522;7.020;2022-10-31T08:53:35;15.00;99.90
31639;DHT22;18248;51.522;7.020;2022-10-31T08:56:34;15.00;99.90
31639;DHT22;18248;51.522;7.020;2022-10-31T08:59:32;15.20;99.90
31639;DHT22;18248;51.522;7.020;2022-10-31T09:02:31;15.20;99.90
31639;DHT22;18248;51.522;7.020;2022-10-31T09:05:30;15.30;99.90
31639;DHT22;18248;51.522;7.020;2022-10-31T09:08:30;15.40;99.90
31639;DHT22;18248;51.522;7.020;2022-10-31T09:11:30;15.40;99.90
31639;DHT22;18248;51.522;7.020;2022-10-31T09:14:29;15.50;99.90
31639;DHT22;18248;51.522;7.020;2022-10-31T09:17:28;15.50;99.90
31639;DHT22;18248;51.522;7.020;2022-10-31T09:20:28;15.60;99.90
31639;DHT22;18248;51.522;7.020;2022-10-31T09:23:27;15.70;99.90
31639;DHT22;18248;51.522;7.020;2022-10-31T09:26:25;15.80;99.90
31639;DHT22;18248;51.522;7.020;2022-10-31T09:29:24;15.90;99.90
31639;DHT22;18248;51.522;7.020;2022-10-31T09:32:23;16.00;99.90
31639;DHT22;18248;51.522;7.020;2022-10-31T09:35:21;16.10;99.90
31639;DHT22;18248;51.522;7.020;2022-10-31T09:38:20;16.20;99.90
31639;DHT22;18248;51.522;7.020;2022-10-31T09:41:36;16.30;99.90
31639;DHT22;18248;51.522;7.020;2022-10-31T09:44:52;16.30;99.90
31639;DHT22;18248;51.522;7.020;2022-10-31T09:48:07;16.40;99.90
31639;DHT22;18248;51.522;7.020;2022-10-31T09:54:26;16.50;99.90
31639;DHT22;18248;51.522;7.020;2022-10-31T09:57:31;16.60;99.90
31639;DHT22;18248;51.522;7.020;2022-10-31T10:00:32;16.70;99.90
31639;DHT22;18248;51.522;7.020;2022-10-31T10:03:44;16.80;99.90
31639;DHT22;18248;51.522;7.020;2022-10-31T10:06:47;16.90;99.90
31639;DHT22;18248;51.522;7.020;2022-10-31T10:09:47;16.90;99.90
31639;DHT22;18248;51.522;7.020;2022-10-31T10:13:26;17.00;99.90
31639;DHT22;18248;51.522;7.020;2022-10-31T10:26:20;17.50;99.90
31639;DHT22;18248;51.522;7.020;2022-10-31T10:29:31;17.70;99.90
31639;DHT22;18248;51.522;7.020;2022-10-31T10:32:40;17.90;99.90
31639;DHT22;18248;51.522;7.020;2022-10-31T10:35:55;18.00;99.90
31639;DHT22;18248;51.522;7.020;2022-10-31T10:39:13;18.10;99.90
31639;DHT22;18248;51.522;7.020;2022-10-31T10:42:15;18.20;99.90
31639;DHT22;18248;51.522;7.020;2022-10-31T10:45:32;18.40;99.90
31639;DHT22;18248;51.522;7.020;2022-10-31T10:49:12;18.50;99.90
31639;DHT22;18248;51.522;7.020;2022-10-31T10:58:39;18.60;99.90
31639;DHT22;18248;51.522;7.020;2022-10-31T11:01:40;18.60;99.90
31639;DHT22;18248;51.522;7.020;2022-10-31T11:04:40;18.60;99.90
31639;DHT22;18248;51.522;7.020;2022-10-31T11:07:39;18.60;99.90
31639;DHT22;18248;51.522;7.020;2022-10-31T11:10:38;18.60;99.90
31639;DHT22;18248;51.522;7.020;2022-10-31T11:13:37;18.60;99.90
31639;DHT22;18248;51.522;7.020;2022-10-31T11:16:37;18.60;99.90
31639;DHT22;18248;51.522;7.020;2022-10-31T11:19:36;18.70;99.90
31639;DHT22;18248;51.522;7.020;2022-10-31T11:22:35;18.70;99.90
31639;DHT22;18248;51.522;7.020;2022-10-31T11:25:34;18.80;99.90
31639;DHT22;18248;51.522;7.020;2022-10-31T11:28:33;18.80;99.90
31639;DHT22;18248;51.522;7.020;2022-10-31T11:31:34;18.80;99.90
31639;DHT22;18248;51.522;7.020;2022-10-31T11:34:37;18.90;99.90
31639;DHT22;18248;51.522;7.020;2022-10-31T11:37:44;19.00;99.90
31639;DHT22;18248;51.522;7.020;2022-10-31T11:40:56;19.00;99.90
31639;DHT22;18248;51.522;7.020;2022-10-31T11:43:58;19.10;99.90
31639;DHT22;18248;51.522;7.020;2022-10-31T11:47:00;19.20;99.90
31639;DHT22;18248;51.522;7.020;2022-10-31T11:50:02;19.30;99.90
31639;DHT22;18248;51.522;7.020;2022-10-31T11:53:01;19.40;99.90
31639;DHT22;18248;51.522;7.020;2022-10-31T11:56:13;19.40;99.90
31639;DHT22;18248;51.522;7.020;2022-10-31T11:59:26;19.50;99.90
31639;DHT22;18248;51.522;7.020;2022-10-31T12:02:26;19.50;99.90
31639;DHT22;18248;51.522;7.020;2022-10-31T12:05:26;19.50;99.90
31639;DHT22;18248;51.522;7.020;2022-10-31T12:08:33;19.60;99.90
31639;DHT22;18248;51.522;7.020;2022-10-31T12:11:42;19.70;99.90
31639;DHT22;18248;51.522;7.020;2022-10-31T12:15:17;19.70;99.90
31639;DHT22;18248;51.522;7.020;2022-10-31T12:31:52;19.80;99.90
31639;DHT22;18248;51.522;7.020;2022-10-31T12:45:22;20.00;99.90
31639;DHT22;18248;51.522;7.020;2022-10-31T12:51:52;20.20;99.90
31639;DHT22;18248;51.522;7.020;2022-10-31T12:58:26;20.30;99.90
31639;DHT22;18248;51.522;7.020;2022-10-31T13:01:50;20.30;99.90
31639;DHT22;18248;51.522;7.020;2022-10-31T13:05:05;20.30;99.90
31639;DHT22;18248;51.522;7.020;2022-10-31T13:08:20;20.30;99.90
31639;DHT22;18248;51.522;7.020;2022-10-31T13:11:25;20.50;99.90
31639;DHT22;18248;51.522;7.020;2022-10-31T13:14:41;20.50;99.90
31639;DHT22;18248;51.522;7.020;2022-10-31T13:17:45;20.50;99.90
31639;DHT22;18248;51.522;7.020;2022-10-31T13:20:47;20.50;99.90
31639;DHT22;18248;51.522;7.020;2022-10-31T13:23:49;20.60;99.90
31639;DHT22;18248;51.522;7.020;2022-10-31T13:26:52;20.70;99.90
31639;DHT22;18248;51.522;7.020;2022-10-31T13:29:57;20.70;99.90
31639;DHT22;18248;51.522;7.020;2022-10-31T13:36:15;20.60;99.90
31639;DHT22;18248;51.522;7.020;2022-10-31T13:43:07;20.60;99.90
31639;DHT22;18248;51.522;7.020;2022-10-31T13:46:35;20.60;99.90
31639;DHT22;18248;51.522;7.020;2022-10-31T13:52:32;20.50;99.90
31639;DHT22;18248;51.522;7.020;2022-10-31T13:55:38;20.50;99.90
31639;DHT22;18248;51.522;7.020;2022-10-31T13:58:37;20.50;99.90
31639;DHT22;18248;51.522;7.020;2022-10-31T14:01:36;20.50;99.90
31639;DHT22;18248;51.522;7.020;2022-10-31T14:04:45;20.50;99.90
31639;DHT22;18248;51.522;7.020;2022-10-31T14:07:45;20.50;99.90
31639;DHT22;18248;51.522;7.020;2022-10-31T14:10:50;20.50;99.90
31639;DHT22;18248;51.522;7.020;2022-10-31T14:13:50;20.50;99.90
31639;DHT22;18248;51.522;7.020;2022-10-31T14:16:55;20.50;99.90
31639;DHT22;18248;51.522;7.020;2022-10-31T14:20:25;20.60;99.90
31639;DHT22;18248;51.522;7.020;2022-10-31T14:23:39;20.60;99.90
31639;DHT22;18248;51.522;7.020;2022-10-31T14:26:38;20.50;99.90
31639;DHT22;18248;51.522;7.020;2022-10-31T14:29:38;20.50;99.90
31639;DHT22;18248;51.522;7.020;2022-10-31T14:32:37;20.50;99.90
31639;DHT22;18248;51.522;7.020;2022-10-31T14:36:18;20.60;99.90
31639;DHT22;18248;51.522;7.020;2022-10-31T14:39:27;20.60;99.90
31639;DHT22;18248;51.522;7.020;2022-10-31T14:49:03;20.50;99.90
31639;DHT22;18248;51.522;7.020;2022-10-31T14:52:07;20.50;99.90
31639;DHT22;18248;51.522;7.020;2022-10-31T14:55:12;20.40;99.90
31639;DHT22;18248;51.522;7.020;2022-10-31T14:58:17;20.30;99.90
31639;DHT22;18248;51.522;7.020;2022-10-31T15:01:27;20.30;99.90
31639;DHT22;18248;51.522;7.020;2022-10-31T15:04:28;20.30;99.90
31639;DHT22;18248;51.522;7.020;2022-10-31T15:07:28;20.30;99.90
31639;DHT22;18248;51.522;7.020;2022-10-31T15:10:31;20.20;99.90
31639;DHT22;18248;51.522;7.020;2022-10-31T15:13:31;20.20;99.90
31639;DHT22;18248;51.522;7.020;2022-10-31T15:16:35;20.20;99.90
31639;DHT22;18248;51.522;7.020;2022-10-31T15:19:35;20.10;99.90
31639;DHT22;18248;51.522;7.020;2022-10-31T15:22:34;20.10;99.90
31639;DHT22;18248;51.522;7.020;2022-10-31T15:25:34;20.10;99.90
31639;DHT22;18248;51.522;7.020;2022-10-31T15:28:33;20.10;99.90
31639;DHT22;18248;51.522;7.020;2022-10-31T15:31:32;20.10;99.90
31639;DHT22;18248;51.522;7.020;2022-10-31T15:34:39;20.10;99.90
31639;DHT22;18248;51.522;7.020;2022-10-31T15:37:38;20.00;99.90
31639;DHT22;18248;51.522;7.020;2022-10-31T15:40:37;20.00;99.90
31639;DHT22;18248;51.522;7.020;2022-10-31T15:43:37;20.00;99.90
31639;DHT22;18248;51.522;7.020;2022-10-31T15:46:36;19.90;99.90
31639;DHT22;18248;51.522;7.020;2022-10-31T15:52:49;19.80;99.90
31639;DHT22;18248;51.522;7.020;2022-10-31T15:56:00;19.80;99.90
31639;DHT22;18248;51.522;7.020;2022-10-31T15:59:00;19.70;99.90
31639;DHT22;18248;51.522;7.020;2022-10-31T16:02:01;19.50;99.90
31639;DHT22;18248;51.522;7.020;2022-10-31T16:05:01;19.50;99.90
31639;DHT22;18248;51.522;7.020;2022-10-31T16:08:00;19.40;99.90
31639;DHT22;18248;51.522;7.020;2022-10-31T16:17:14;19.10;99.90
31639;DHT22;18248;51.522;7.020;2022-10-31T16:20:28;19.00;99.90
31639;DHT22;18248;51.522;7.020;2022-10-31T16:23:27;18.90;99.90
31639;DHT22;18248;51.522;7.020;2022-10-31T16:26:26;18.80;99.90
31639;DHT22;18248;51.522;7.020;2022-10-31T16:29:41;18.80;99.90
31639;DHT22;18248;51.522;7.020;2022-10-31T16:35:54;18.60;99.90
31639;DHT22;18248;51.522;7.020;2022-10-31T16:38:54;18.50;99.90
31639;DHT22;18248;51.522;7.020;2022-10-31T16:41:55;18.50;99.90
31639;DHT22;18248;51.522;7.020;2022-10-31T16:44:55;18.50;99.90
31639;DHT22;18248;51.522;7.020;2022-10-31T16:48:08;18.50;99.90
31639;DHT22;18248;51.522;7.020;2022-10-31T16:51:09;18.50;99.90
31639;DHT22;18248;51.522;7.020;2022-10-31T16:54:07;18.40;99.90
31639;DHT22;18248;51.522;7.020;2022-10-31T16:57:14;18.30;99.90
31639;DHT22;18248;51.522;7.020;2022-10-31T17:00:19;18.20;99.90
31639;DHT22;18248;51.522;7.020;2022-10-31T17:03:19;18.20;99.90
31639;DHT22;18248;51.522;7.020;2022-10-31T17:06:18;18.10;99.90
31639;DHT22;18248;51.522;7.020;2022-10-31T17:09:18;18.00;99.90
31639;DHT22;18248;51.522;7.020;2022-10-31T17:12:18;17.90;99.90
31639;DHT22;18248;51.522;7.020;2022-10-31T17:15:25;17.80;99.90
31639;DHT22;18248;51.522;7.020;2022-10-31T17:18:28;17.80;99.90
31639;DHT22;18248;51.522;7.020;2022-10-31T17:21:30;17.70;99.90
31639;DHT22;18248;51.522;7.020;2022-10-31T17:24:28;17.60;99.90
31639;DHT22;18248;51.522;7.020;2022-10-31T17:27:27;17.60;99.90
31639;DHT22;18248;51.522;7.020;2022-10-31T17:30:25;17.50;99.90
31639;DHT22;18248;51.522;7.020;2022-10-31T17:33:24;17.50;99.90
31639;DHT22;18248;51.522;7.020;2022-10-31T17:36:23;17.50;99.90
31639;DHT22;18248;51.522;7.020;2022-10-31T17:39:22;17.40;99.90
31639;DHT22;18248;51.522;7.020;2022-10-31T17:42:20;17.40;99.90
31639;DHT22;18248;51.522;7.020;2022-10-31T17:45:19;17.30;99.90
31639;DHT22;18248;51.522;7.020;2022-10-31T17:48:18;17.30;99.90
31639;DHT22;18248;51.522;7.020;2022-10-31T17:51:17;17.20;99.90
31639;DHT22;18248;51.522;7.020;2022-10-31T17:54:15;17.20;99.90
31639;DHT22;18248;51.522;7.020;2022-10-31T17:57:16;17.10;99.90
31639;DHT22;18248;51.522;7.020;2022-10-31T18:00:18;17.10;99.90
31639;DHT22;18248;51.522;7.020;2022-10-31T18:03:21;17.00;99.90
31639;DHT22;18248;51.522;7.020;2022-10-31T18:06:20;17.00;99.90
31639;DHT22;18248;51.522;7.020;2022-10-31T18:09:19;16.90;99.90
31639;DHT22;18248;51.522;7.020;2022-10-31T18:12:17;16.80;99.90
31639;DHT22;18248;51.522;7.020;2022-10-31T18:15:16;16.80;99.90
31639;DHT22;18248;51.522;7.020;2022-10-31T18:18:15;16.80;99.90
31639;DHT22;18248;51.522;7.020;2022-10-31T18:21:14;16.80;99.90
31639;DHT22;18248;51.522;7.020;2022-10-31T18:24:12;16.70;99.90
31639;DHT22;18248;51.522;7.020;2022-10-31T18:27:11;16.70;99.90
31639;DHT22;18248;51.522;7.020;2022-10-31T18:30:09;16.60;99.90
31639;DHT22;18248;51.522;7.020;2022-10-31T18:33:08;16.60;99.90
31639;DHT22;18248;51.522;7.020;2022-10-31T18:36:07;16.50;99.90
31639;DHT22;18248;51.522;7.020;2022-10-31T18:39:06;16.40;99.90
31639;DHT22;18248;51.522;7.020;2022-10-31T18:42:06;16.40;99.90
31639;DHT22;18248;51.522;7.020;2022-10-31T18:45:05;16.30;99.90
31639;DHT22;18248;51.522;7.020;2022-10-31T18:48:04;16.10;99.90
31639;DHT22;18248;51.522;7.020;2022-10-31T18:51:04;16.10;99.90
31639;DHT22;18248;51.522;7.020;2022-10-31T18:54:03;16.10;99.90
31639;DHT22;18248;51.522;7.020;2022-10-31T18:57:01;16.00;99.90
31639;DHT22;18248;51.522;7.020;2022-10-31T19:00:00;16.00;99.90
31639;DHT22;18248;51.522;7.020;2022-10-31T19:02:58;16.10;99.90
31639;DHT22;18248;51.522;7.020;2022-10-31T19:05:57;16.20;99.90
31639;DHT22;18248;51.522;7.020;2022-10-31T19:09:00;16.30;99.90
31639;DHT22;18248;51.522;7.020;2022-10-31T19:12:01;16.30;99.90
31639;DHT22;18248;51.522;7.020;2022-10-31T19:15:00;16.40;99.90
31639;DHT22;18248;51.522;7.020;2022-10-31T19:17:58;16.60;99.90
31639;DHT22;18248;51.522;7.020;2022-10-31T19:20:57;16.60;99.90
31639;DHT22;18248;51.522;7.020;2022-10-31T19:23:56;16.60;99.90
31639;DHT22;18248;51.522;7.020;2022-10-31T19:26:55;16.70;99.90
31639;DHT22;18248;51.522;7.020;2022-10-31T19:29:55;16.70;99.90
31639;DHT22;18248;51.522;7.020;2022-10-31T19:32:54;16.80;99.90
31639;DHT22;18248;51.522;7.020;2022-10-31T19:36:07;16.70;99.90
31639;DHT22;18248;51.522;7.020;2022-10-31T19:39:08;16.70;99.90
31639;DHT22;18248;51.522;7.020;2022-10-31T19:42:06;16.80;99.90
31639;DHT22;18248;51.522;7.020;2022-10-31T19:45:05;16.70;99.90
31639;DHT22;18248;51.522;7.020;2022-10-31T19:48:06;16.80;99.90
31639;DHT22;18248;51.522;7.020;2022-10-31T19:51:06;16.70;99.90
31639;DHT22;18248;51.522;7.020;2022-10-31T19:54:06;16.80;99.90
31639;DHT22;18248;51.522;7.020;2022-10-31T19:57:04;16.80;99.90
31639;DHT22;18248;51.522;7.020;2022-10-31T20:00:05;16.80;99.90
31639;DHT22;18248;51.522;7.020;2022-10-31T20:03:04;16.80;99.90
31639;DHT22;18248;51.522;7.020;2022-10-31T20:06:02;16.80;99.90
31639;DHT22;18248;51.522;7.020;2022-10-31T20:09:04;16.70;99.90
31639;DHT22;18248;51.522;7.020;2022-10-31T20:12:03;16.70;99.90
31639;DHT22;18248;51.522;7.020;2022-10-31T20:15:02;16.70;99.90
31639;DHT22;18248;51.522;7.020;2022-10-31T20:18:00;16.60;99.90
31639;DHT22;18248;51.522;7.020;2022-10-31T20:21:27;16.60;99.90
31639;DHT22;18248;51.522;7.020;2022-10-31T20:24:26;16.60;99.90
31639;DHT22;18248;51.522;7.020;2022-10-31T20:27:24;16.60;99.90
31639;DHT22;18248;51.522;7.020;2022-10-31T20:30:23;16.50;99.90
31639;DHT22;18248;51.522;7.020;2022-10-31T20:33:21;16.40;99.90
31639;DHT22;18248;51.522;7.020;2022-10-31T20:36:21;16.30;99.90
31639;DHT22;18248;51.522;7.020;2022-10-31T20:39:20;16.30;99.90
31639;DHT22;18248;51.522;7.020;2022-10-31T20:42:19;16.20;99.90
31639;DHT22;18248;51.522;7.020;2022-10-31T20:45:19;16.20;99.90
31639;DHT22;18248;51.522;7.020;2022-10-31T20:48:18;16.10;99.90
31639;DHT22;18248;51.522;7.020;2022-10-31T20:51:20;16.10;99.90
31639;DHT22;18248;51.522;7.020;2022-10-31T20:54:18;16.00;99.90
31639;DHT22;18248;51.522;7.020;2022-10-31T20:57:17;16.10;99.90
31639;DHT22;18248;51.522;7.020;2022-10-31T21:00:16;16.10;99.90
31639;DHT22;18248;51.522;7.020;2022-10-31T21:03:14;16.00;99.90
31639;DHT22;18248;51.522;7.020;2022-10-31T21:06:14;16.00;99.90
31639;DHT22;18248;51.522;7.020;2022-10-31T21:09:12;16.10;99.90
31639;DHT22;18248;51.522;7.020;2022-10-31T21:12:11;16.20;99.90
31639;DHT22;18248;51.522;7.020;2022-10-31T21:15:11;16.30;99.90
31639;DHT22;18248;51.522;7.020;2022-10-31T21:18:12;16.50;99.90
31639;DHT22;18248;51.522;7.020;2022-10-31T21:21:15;16.60;99.90
31639;DHT22;18248;51.522;7.020;2022-10-31T21:24:17;16.60;99.90
31639;DHT22;18248;51.522;7.020;2022-10-31T21:27:17;16.70;99.90
31639;DHT22;18248;51.522;7.020;2022-10-31T21:30:16;16.70;99.90
31639;DHT22;18248;51.522;7.020;2022-10-31T21:33:14;16.80;99.90
31639;DHT22;18248;51.522;7.020;2022-10-31T21:36:15;16.80;99.90